Time;durP1;ratioP1;P1;durP2;ratioP2;P2;SDS_P1;SDS_P2;PMS_P1;PMS_P2;Temp;Humidity;BMP_temperature;BMP_pressure;BME280_temperature;BME280_humidity;BME280_pressure;Samples;Min_cycle;Max_cycle;Signal;HPM_P1;HPM_P2
2023/07/22 00:03:10;;;;;;;5.10;4.60;;;;;;;14.59;100.00;101353.34;10414475;28;20029;-71
2023/07/22 00:08:11;;;;;;;8.40;6.75;;;;;;;14.56;100.00;101353.78;10414128;28;20409;-69
2023/07/22 00:13:11;;;;;;;8.07;6.22;;;;;;;14.49;100.00;101352.94;10414119;28;20437;-69
2023/07/22 00:18:11;;;;;;;10.38;7.53;;;;;;;14.45;100.00;101345.38;10413863;28;20480;-69
2023/07/22 00:23:12;;;;;;;8.10;6.63;;;;;;;14.43;100.00;101337.44;10414585;28;20038;-69
2023/07/22 00:28:12;;;;;;;13.98;6.18;;;;;;;14.31;100.00;101337.22;10414449;28;20120;-69
2023/07/22 00:33:13;;;;;;;7.53;6.70;;;;;;;14.29;100.00;101336.59;10429361;28;20410;-70
2023/07/22 00:38:14;;;;;;;12.30;6.80;;;;;;;14.27;100.00;101335.97;10413012;28;20034;-70
2023/07/22 00:43:14;;;;;;;6.95;6.18;;;;;;;14.26;100.00;101330.72;10412732;28;20041;-68
2023/07/22 00:48:15;;;;;;;9.38;6.90;;;;;;;14.39;100.00;101334.31;10412763;28;20095;-69
2023/07/22 00:53:15;;;;;;;7.78;5.68;;;;;;;14.53;100.00;101321.50;10410918;28;20552;-71
2023/07/22 00:58:15;;;;;;;8.00;6.30;;;;;;;14.68;100.00;101318.53;10412614;28;20064;-70
2023/07/22 01:03:17;;;;;;;7.28;5.55;;;;;;;14.75;100.00;101318.50;10427991;28;20033;-69
2023/07/22 01:08:17;;;;;;;7.43;5.47;;;;;;;14.72;100.00;101314.31;10412505;28;20037;-69
2023/07/22 01:13:18;;;;;;;18.45;6.15;;;;;;;14.65;100.00;101306.16;10412227;28;20164;-70
2023/07/22 01:18:19;;;;;;;10.07;5.40;;;;;;;14.71;100.00;101307.22;10412160;28;20033;-70
2023/07/22 01:23:19;;;;;;;5.32;4.80;;;;;;;14.71;100.00;101295.44;10411086;28;20039;-69
2023/07/22 01:28:21;;;;;;;7.28;4.95;;;;;;;14.74;100.00;101300.47;10418450;28;20060;-69
2023/07/22 01:33:21;;;;;;;5.47;4.20;;;;;;;14.72;100.00;101295.25;10419874;28;20045;-69
2023/07/22 01:38:21;;;;;;;7.45;5.03;;;;;;;14.69;100.00;101292.13;10419501;28;20044;-68
2023/07/22 01:43:22;;;;;;;8.13;4.22;;;;;;;14.68;100.00;101284.97;10419503;28;20033;-70
2023/07/22 01:48:23;;;;;;;9.30;5.43;;;;;;;14.65;100.00;101287.09;10418454;28;20029;-69
2023/07/22 01:53:23;;;;;;;5.32;4.65;;;;;;;14.65;100.00;101281.63;10417928;28;20045;-69
2023/07/22 01:58:24;;;;;;;5.20;4.45;;;;;;;14.58;100.00;101278.09;10418850;28;20477;-69
2023/07/22 02:03:24;;;;;;;9.40;5.35;;;;;;;14.55;100.00;101273.09;10418863;28;20045;-70
2023/07/22 02:08:25;;;;;;;14.90;6.43;;;;;;;14.50;100.00;101277.47;10419238;28;20037;-71
2023/07/22 02:13:25;;;;;;;4.78;4.20;;;;;;;14.42;100.00;101275.78;10434605;28;20093;-69
2023/07/22 02:18:26;;;;;;;9.25;6.00;;;;;;;14.32;100.00;101275.41;10417803;28;20050;-70
2023/07/22 02:23:26;;;;;;;5.40;4.53;;;;;;;14.29;100.00;101281.28;10417151;28;20531;-69
2023/07/22 02:28:27;;;;;;;6.47;5.38;;;;;;;14.17;100.00;101273.78;10417553;28;20048;-70
2023/07/22 02:33:27;;;;;;;5.60;4.82;;;;;;;14.11;100.00;101268.34;10433934;28;20065;-69
2023/07/22 02:38:27;;;;;;;7.55;3.60;;;;;;;14.08;100.00;101260.59;10415904;28;20060;-69
2023/07/22 02:43:28;;;;;;;7.13;4.32;;;;;;;14.05;100.00;101261.84;10416479;28;20033;-70
2023/07/22 02:48:29;;;;;;;9.85;5.03;;;;;;;14.07;100.00;101256.16;10415788;28;20030;-69
2023/07/22 02:53:29;;;;;;;10.60;5.28;;;;;;;14.16;100.00;101257.63;10416645;28;20124;-69
2023/07/22 02:58:31;;;;;;;6.00;5.38;;;;;;;14.27;100.00;101261.59;10417521;28;20050;-69
2023/07/22 03:03:34;;;;;;;5.63;4.15;;;;;;;14.35;100.00;101255.91;10417766;28;20045;-68
2023/07/22 03:08:35;;;;;;;4.47;3.55;;;;;;;14.39;100.00;101258.00;10416407;28;20492;-68
2023/07/22 03:13:35;;;;;;;5.32;3.72;;;;;;;14.38;100.00;101256.31;10416282;28;20136;-70
2023/07/22 03:18:35;;;;;;;8.05;4.57;;;;;;;14.25;100.00;101247.34;10415642;28;20061;-68
2023/07/22 03:23:36;;;;;;;5.72;3.92;;;;;;;14.16;100.00;101255.72;10414025;28;20042;-69
2023/07/22 03:28:36;;;;;;;8.70;5.13;;;;;;;14.04;100.00;101257.44;10414768;28;20093;-69
2023/07/22 03:33:37;;;;;;;9.98;4.85;;;;;;;14.04;100.00;101265.63;10429831;28;20076;-70
2023/07/22 03:38:37;;;;;;;4.22;3.80;;;;;;;14.10;100.00;101278.41;10431160;28;20347;-68
2023/07/22 03:43:37;;;;;;;6.55;4.43;;;;;;;14.24;100.00;101272.91;10413554;28;20105;-69
2023/07/22 03:48:38;;;;;;;6.25;4.97;;;;;;;14.39;100.00;101276.25;10415008;28;20044;-69
2023/07/22 03:53:38;;;;;;;5.57;4.40;;;;;;;14.49;100.00;101273.91;10413744;28;20057;-69
2023/07/22 03:58:39;;;;;;;7.28;5.38;;;;;;;14.54;100.00;101267.84;10414561;28;20042;-69
2023/07/22 04:03:39;;;;;;;8.00;6.13;;;;;;;14.60;100.00;101265.09;10414343;28;20040;-69
2023/07/22 04:08:39;;;;;;;9.80;6.07;;;;;;;14.68;100.00;101249.53;10413991;28;20059;-69
2023/07/22 04:13:40;;;;;;;12.48;7.80;;;;;;;14.84;100.00;101257.25;10414385;28;20075;-70
2023/07/22 04:18:40;;;;;;;11.00;8.45;;;;;;;14.98;100.00;101244.38;10413491;28;20041;-69
2023/07/22 04:23:41;;;;;;;15.02;9.02;;;;;;;15.04;100.00;101255.25;10411270;28;20092;-69
2023/07/22 04:28:41;;;;;;;12.07;10.18;;;;;;;15.05;100.00;101248.72;10412519;28;20072;-69
2023/07/22 04:33:42;;;;;;;24.00;13.18;;;;;;;15.07;100.00;101262.16;10413192;28;20042;-70
2023/07/22 04:38:42;;;;;;;22.77;10.73;;;;;;;15.17;100.00;101261.69;10412807;28;20473;-69
2023/07/22 04:43:43;;;;;;;34.17;12.65;;;;;;;15.27;100.00;101251.13;10413927;28;20030;-69
2023/07/22 04:48:43;;;;;;;18.15;12.35;;;;;;;15.37;100.00;101256.09;10413065;28;20034;-70
2023/07/22 04:53:43;;;;;;;20.23;13.98;;;;;;;15.49;100.00;101259.78;10412547;28;20088;-70
2023/07/22 04:58:44;;;;;;;25.25;16.02;;;;;;;15.52;100.00;101246.53;10411914;28;20064;-70
2023/07/22 05:03:44;;;;;;;16.73;11.73;;;;;;;15.61;100.00;101257.19;10410490;28;20033;-69
2023/07/22 05:08:45;;;;;;;31.40;15.82;;;;;;;15.68;100.00;101256.09;10411437;28;20377;-70
2023/07/22 05:13:45;;;;;;;23.65;16.35;;;;;;;15.74;100.00;101251.63;10412851;28;20143;-70
2023/07/22 05:18:46;;;;;;;28.98;18.83;;;;;;;15.84;100.00;101246.50;10412053;28;20030;-69
2023/07/22 05:23:46;;;;;;;24.92;16.65;;;;;;;15.97;100.00;101245.53;10411920;28;20389;-69
2023/07/22 05:28:46;;;;;;;24.70;16.15;;;;;;;16.15;100.00;101252.94;10410988;28;20061;-69
2023/07/22 05:33:47;;;;;;;21.80;15.13;;;;;;;16.32;100.00;101243.06;10412263;28;20038;-70
2023/07/22 05:38:47;;;;;;;32.17;19.00;;;;;;;16.52;100.00;101238.19;10411227;28;20360;-70
2023/07/22 05:43:48;;;;;;;26.25;14.02;;;;;;;16.71;100.00;101240.94;10412218;28;20122;-69
2023/07/22 05:48:48;;;;;;;21.77;14.15;;;;;;;16.85;100.00;101239.72;10395117;28;20033;-69
2023/07/22 05:53:48;;;;;;;22.17;15.38;;;;;;;16.99;100.00;101242.28;10411944;28;20154;-68
2023/07/22 05:58:49;;;;;;;28.90;13.85;;;;;;;17.01;100.00;101241.00;10411099;28;20038;-70
2023/07/22 06:03:49;;;;;;;32.85;14.45;;;;;;;17.12;100.00;101237.44;10412162;28;20033;-69
2023/07/22 06:08:50;;;;;;;24.73;12.05;;;;;;;17.16;100.00;101237.81;10412377;28;20029;-69
2023/07/22 06:13:50;;;;;;;21.10;12.95;;;;;;;17.28;100.00;101233.22;10414347;28;20048;-69
2023/07/22 06:18:51;;;;;;;17.95;12.32;;;;;;;17.46;100.00;101237.78;10418073;28;20044;-69
2023/07/22 06:23:51;;;;;;;23.00;12.40;;;;;;;17.68;100.00;101232.59;10419029;28;20045;-71
2023/07/22 06:28:51;;;;;;;19.20;11.32;;;;;;;17.93;100.00;101235.13;10418277;28;20066;-69
2023/07/22 06:33:52;;;;;;;27.27;14.00;;;;;;;18.02;100.00;101241.06;10418664;28;20048;-69
2023/07/22 06:38:52;;;;;;;17.48;10.95;;;;;;;18.04;100.00;101230.72;10417085;28;20060;-69
2023/07/22 06:43:53;;;;;;;15.32;10.73;;;;;;;18.19;100.00;101230.22;10416249;28;20423;-70
2023/07/22 06:48:53;;;;;;;19.85;10.63;;;;;;;18.30;100.00;101227.47;10417181;28;20103;-71
2023/07/22 06:53:54;;;;;;;15.05;9.93;;;;;;;18.47;100.00;101240.44;10417720;28;20060;-69
2023/07/22 06:58:54;;;;;;;20.13;9.95;;;;;;;18.53;100.00;101237.53;10417626;28;20072;-70
2023/07/22 07:03:55;;;;;;;20.13;9.95;;;;;;;18.77;100.00;101240.28;10416703;28;20029;-69
2023/07/22 07:08:55;;;;;;;15.00;9.68;;;;;;;18.80;100.00;101242.53;10416678;28;20382;-69
2023/07/22 07:13:55;;;;;;;22.40;10.15;;;;;;;18.91;100.00;101243.56;10416878;28;20065;-70
2023/07/22 07:18:56;;;;;;;28.48;9.07;;;;;;;19.07;100.00;101241.94;10415844;28;20060;-70
2023/07/22 07:23:57;;;;;;;15.02;7.47;;;;;;;19.13;100.00;101236.28;10431666;28;20197;-69
2023/07/22 07:28:57;;;;;;;10.45;7.80;;;;;;;19.03;100.00;101236.94;10430878;28;20129;-69
2023/07/22 07:33:57;;;;;;;12.65;7.90;;;;;;;18.90;100.00;101229.00;10415554;28;20514;-68
2023/07/22 07:38:58;;;;;;;15.60;7.60;;;;;;;19.18;100.00;101222.66;10413872;28;20449;-69
2023/07/22 07:43:58;;;;;;;14.52;7.38;;;;;;;19.65;100.00;101219.63;10415090;28;20045;-69
2023/07/22 07:49:00;;;;;;;17.27;8.07;;;;;;;20.47;100.00;101229.06;10414793;28;20037;-73
2023/07/22 07:54:01;;;;;;;11.48;7.22;;;;;;;20.65;100.00;101230.72;10414872;28;20140;-71
2023/07/22 07:59:02;;;;;;;12.18;8.48;;;;;;;20.05;100.00;101229.59;10413849;28;20041;-70
2023/07/22 08:04:03;;;;;;;12.10;7.18;;;;;;;19.71;100.00;101226.88;10415069;28;20117;-71
2023/07/22 08:09:05;;;;;;;16.33;6.90;;;;;;;19.89;100.00;101222.22;10413405;28;20036;-69
2023/07/22 08:14:05;;;;;;;9.10;6.93;;;;;;;20.36;100.00;101211.63;10414210;28;20041;-70
2023/07/22 08:19:06;;;;;;;17.13;7.50;;;;;;;21.33;100.00;101225.66;10413513;28;20429;-68
2023/07/22 08:24:07;;;;;;;17.70;6.35;;;;;;;20.92;100.00;101221.66;10412856;28;20046;-68
2023/07/22 08:29:07;;;;;;;4.53;4.10;;;;;;;20.50;99.14;101227.75;10413932;28;20084;-69
2023/07/22 08:34:08;;;;;;;4.15;3.75;;;;;;;20.62;95.38;101232.06;10413543;28;20069;-68
2023/07/22 08:39:08;;;;;;;6.45;3.50;;;;;;;20.59;93.75;101229.81;10412287;28;20037;-68
2023/07/22 08:44:09;;;;;;;3.47;3.17;;;;;;;20.81;94.85;101218.78;10411469;28;20480;-69
2023/07/22 08:49:09;;;;;;;7.20;3.47;;;;;;;21.18;92.54;101222.75;10428789;28;20159;-68
2023/07/22 08:54:10;;;;;;;2.42;2.25;;;;;;;21.51;87.53;101216.19;10413198;28;20053;-69
2023/07/22 08:59:10;;;;;;;5.97;3.60;;;;;;;21.22;87.84;101219.22;10428726;28;20065;-69
2023/07/22 09:04:10;;;;;;;3.22;3.00;;;;;;;21.46;82.63;101219.72;10394808;28;20149;-69
2023/07/22 09:09:11;;;;;;;3.15;2.85;;;;;;;22.51;81.99;101225.41;10411772;28;20040;-68
2023/07/22 09:14:12;;;;;;;4.10;2.30;;;;;;;22.88;79.10;101210.63;10413259;28;20025;-69
2023/07/22 09:19:13;;;;;;;4.07;2.70;;;;;;;21.96;83.53;101221.22;10412281;28;20099;-68
2023/07/22 09:24:27;;;;;;;7.93;2.78;;;;;;;20.70;84.73;101229.94;10411583;28;20037;-69
2023/07/22 09:29:35;;;;;;;4.68;2.70;;;;;;;19.40;89.62;101233.78;10412938;28;20040;-67
2023/07/22 09:34:35;;;;;;;4.85;3.38;;;;;;;18.08;100.00;101267.53;10411277;28;20033;-64
2023/07/22 09:39:36;;;;;;;4.32;3.67;;;;;;;17.05;100.00;101269.56;10411514;28;20037;-65
2023/07/22 09:44:38;;;;;;;6.15;3.65;;;;;;;16.72;100.00;101259.84;10410891;28;20045;-64
2023/07/22 09:49:42;;;;;;;10.63;3.47;;;;;;;16.40;100.00;101267.38;10417975;28;20465;-63
2023/07/22 09:54:48;;;;;;;3.75;3.42;;;;;;;16.20;100.00;101261.28;10419475;28;20474;-64
2023/07/22 09:59:48;;;;;;;4.33;3.93;;;;;;;16.46;100.00;101252.81;10419933;28;20409;-67
2023/07/22 10:04:49;;;;;;;4.85;3.92;;;;;;;16.69;100.00;101251.28;10419467;28;20033;-66
2023/07/22 10:09:51;;;;;;;8.10;5.38;;;;;;;16.64;100.00;101251.13;10419001;28;20108;-68
2023/07/22 10:14:51;;;;;;;8.25;3.38;;;;;;;16.44;100.00;101268.59;10401541;28;20036;-66
2023/07/22 10:19:53;;;;;;;7.13;3.17;;;;;;;16.17;100.00;101264.47;10435090;28;20044;-67
2023/07/22 10:24:53;;;;;;;5.80;3.53;;;;;;;16.62;100.00;101262.28;10433687;28;20164;-66
2023/07/22 10:29:54;;;;;;;3.92;3.60;;;;;;;17.69;100.00;101252.59;10418515;28;20045;-66
2023/07/22 10:34:54;;;;;;;6.07;2.78;;;;;;;17.79;100.00;101269.31;10432993;28;20044;-66
2023/07/22 10:39:59;;;;;;;6.10;2.20;;;;;;;17.60;100.00;101265.78;10400547;28;20036;-66
2023/07/22 10:45:00;;;;;;;2.33;2.15;;;;;;;18.63;100.00;101253.38;10433218;28;20035;-67
2023/07/22 10:50:07;;;;;;;8.23;1.65;;;;;;;19.63;100.00;101248.44;10415684;28;20026;-66
2023/07/22 10:55:17;;;;;;;3.17;1.85;;;;;;;20.08;100.00;101251.09;10432594;28;20053;-68
2023/07/22 11:00:20;;;;;;;7.90;2.25;;;;;;;20.11;100.00;101242.34;10431020;28;20065;-68
2023/07/22 11:05:20;;;;;;;13.63;2.85;;;;;;;20.21;100.00;101242.47;10417515;28;20470;-68
2023/07/22 11:10:21;;;;;;;2.83;2.42;;;;;;;20.42;100.00;101231.75;10416062;28;20037;-70
2023/07/22 11:15:22;;;;;;;1.98;1.65;;;;;;;20.89;100.00;101242.25;10432010;28;20053;-68
2023/07/22 11:20:23;;;;;;;2.05;1.90;;;;;;;20.96;100.00;101242.06;10416587;28;20108;-69
2023/07/22 11:25:24;;;;;;;13.20;2.75;;;;;;;21.42;100.00;101235.13;10416291;28;20068;-68
2023/07/22 11:30:24;;;;;;;2.05;1.90;;;;;;;21.55;100.00;101239.38;10415361;28;20132;-69
2023/07/22 11:35:24;;;;;;;4.38;2.28;;;;;;;21.16;100.00;101241.47;10414585;28;20083;-69
2023/07/22 11:40:33;;;;;;;7.22;2.25;;;;;;;20.58;100.00;101241.91;10413770;28;20049;-69
2023/07/22 11:45:33;;;;;;;3.00;1.67;;;;;;;20.38;100.00;101234.19;10415300;28;20037;-70
2023/07/22 11:50:34;;;;;;;2.88;1.75;;;;;;;20.10;100.00;101229.69;10416016;28;20033;-70
2023/07/22 11:55:36;;;;;;;3.75;2.95;;;;;;;19.87;100.00;101227.13;10419955;28;20164;-69
2023/07/22 12:00:36;;;;;;;2.20;1.48;;;;;;;19.47;100.00;101231.69;10421773;28;20124;-71
2023/07/22 12:05:37;;;;;;;2.40;1.98;;;;;;;19.36;100.00;101229.84;10425468;28;20041;-70
2023/07/22 12:10:38;;;;;;;1.55;1.45;;;;;;;19.28;100.00;101242.06;10425495;28;20083;-70
2023/07/22 12:15:38;;;;;;;3.08;1.90;;;;;;;19.26;100.00;101224.16;10425022;28;20072;-69
2023/07/22 12:20:38;;;;;;;1.92;1.77;;;;;;;19.23;100.00;101235.66;10423126;28;20091;-69
2023/07/22 12:25:39;;;;;;;3.72;1.90;;;;;;;19.13;100.00;101233.53;10427148;28;20055;-68
2023/07/22 12:30:39;;;;;;;1.60;1.50;;;;;;;19.08;100.00;101214.25;10423172;28;20034;-72
2023/07/22 12:35:40;;;;;;;14.65;1.73;;;;;;;19.42;100.00;101228.00;10417775;28;20395;-69
2023/07/22 12:40:40;;;;;;;3.50;1.67;;;;;;;20.18;100.00;101231.16;10399051;28;20065;-67
2023/07/22 12:45:40;;;;;;;3.00;2.05;;;;;;;20.69;100.00;101223.59;10413110;28;20512;-69
2023/07/22 12:50:41;;;;;;;1.45;1.35;;;;;;;20.71;100.00;101217.81;10413094;28;20405;-68
2023/07/22 12:55:42;;;;;;;1.63;1.52;;;;;;;20.55;100.00;101231.41;10413525;28;20188;-70
2023/07/22 13:00:42;;;;;;;7.63;1.73;;;;;;;20.21;100.00;101225.16;10412586;28;20039;-69
2023/07/22 13:05:42;;;;;;;2.00;1.33;;;;;;;19.98;100.00;101227.03;10412848;28;20060;-70
2023/07/22 13:10:45;;;;;;;2.47;2.15;;;;;;;20.06;100.00;101222.19;10413009;28;20462;-69
2023/07/22 13:15:45;;;;;;;3.55;2.13;;;;;;;20.25;100.00;101219.97;10412377;28;20498;-69
2023/07/22 13:20:46;;;;;;;2.70;1.45;;;;;;;20.19;100.00;101222.66;10412505;28;20044;-76
2023/07/22 13:25:46;;;;;;;2.33;1.50;;;;;;;20.56;100.00;101202.81;10420494;28;20095;-69
2023/07/22 13:30:46;;;;;;;2.60;1.48;;;;;;;20.84;100.00;101195.44;10402152;28;20029;-68
2023/07/22 13:35:47;;;;;;;4.88;2.17;;;;;;;20.82;100.00;101203.09;10420103;28;20087;-68
2023/07/22 13:40:47;;;;;;;1.48;1.48;;;;;;;20.77;100.00;101194.78;10420336;28;20033;-68
2023/07/22 13:45:48;;;;;;;7.90;2.03;;;;;;;20.97;100.00;101197.78;10419839;28;20452;-69
2023/07/22 13:50:48;;;;;;;4.93;2.40;;;;;;;21.05;100.00;101185.44;10418175;28;20068;-69
2023/07/22 13:55:48;;;;;;;2.45;2.25;;;;;;;20.89;100.00;101182.53;10435728;28;20053;-67
2023/07/22 14:00:49;;;;;;;4.38;2.42;;;;;;;20.69;100.00;101176.00;10419040;28;20093;-70
2023/07/22 14:05:49;;;;;;;2.03;1.88;;;;;;;20.52;100.00;101182.41;10435242;28;20374;-68
2023/07/22 14:10:50;;;;;;;1.63;1.40;;;;;;;20.41;100.00;101183.34;10434108;28;20076;-69
2023/07/22 14:15:50;;;;;;;6.57;2.00;;;;;;;20.09;100.00;101177.69;10418616;28;20338;-68
2023/07/22 14:20:50;;;;;;;2.63;2.10;;;;;;;19.85;100.00;101180.66;10418228;28;20487;-69
2023/07/22 14:25:51;;;;;;;7.95;2.40;;;;;;;19.91;100.00;101181.56;10418996;28;20045;-73
2023/07/22 14:30:51;;;;;;;5.28;2.55;;;;;;;19.65;100.00;101172.94;10417844;28;20053;-69
2023/07/22 14:35:52;;;;;;;9.95;2.60;;;;;;;19.27;100.00;101166.28;10416495;28;20120;-69
2023/07/22 14:40:52;;;;;;;5.68;1.60;;;;;;;19.41;100.00;101172.25;10433271;28;20037;-68
2023/07/22 14:45:53;;;;;;;2.05;1.95;;;;;;;19.72;100.00;101159.88;10432243;28;20393;-70
2023/07/22 14:50:54;;;;;;;6.50;2.45;;;;;;;19.91;100.00;101160.44;10417334;28;20033;-70
2023/07/22 14:55:54;;;;;;;5.47;3.00;;;;;;;20.11;100.00;101157.09;10416730;28;20407;-69
2023/07/22 15:00:55;;;;;;;1.75;1.58;;;;;;;20.41;100.00;101159.41;10399311;28;20076;-71
2023/07/22 15:05:55;;;;;;;6.32;2.65;;;;;;;20.40;100.00;101155.00;10415060;28;20033;-70
2023/07/22 15:10:56;;;;;;;5.80;3.47;;;;;;;20.46;100.00;101155.91;10416628;28;20084;-71
2023/07/22 15:15:56;;;;;;;14.45;2.85;;;;;;;20.52;100.00;101156.81;10416416;28;20048;-69
2023/07/22 15:20:57;;;;;;;4.35;2.38;;;;;;;20.32;99.56;101149.09;10432061;28;20045;-70
2023/07/22 15:25:58;;;;;;;6.53;2.67;;;;;;;20.26;100.00;101142.75;10414870;28;20052;-70
2023/07/22 15:30:58;;;;;;;7.15;2.78;;;;;;;20.38;100.00;101148.91;10415345;28;20045;-70
2023/07/22 15:35:58;;;;;;;8.45;2.90;;;;;;;20.61;100.00;101145.09;10415728;28;20485;-70
2023/07/22 15:40:59;;;;;;;5.10;2.10;;;;;;;20.42;100.00;101132.72;10414608;28;20077;-70
2023/07/22 15:46:00;;;;;;;3.97;2.67;;;;;;;20.39;100.00;101136.00;10415608;28;20041;-70
2023/07/22 15:51:01;;;;;;;8.55;2.65;;;;;;;20.27;100.00;101127.06;10415305;28;20037;-71
2023/07/22 15:56:01;;;;;;;7.60;2.50;;;;;;;20.05;100.00;101129.81;10430197;28;20049;-70
2023/07/22 16:01:02;;;;;;;2.47;1.80;;;;;;;19.90;100.00;101125.75;10416365;28;20469;-70
2023/07/22 16:06:02;;;;;;;1.98;1.85;;;;;;;19.73;100.00;101123.06;10413723;28;20397;-70
2023/07/22 16:11:03;;;;;;;2.17;1.88;;;;;;;19.66;100.00;101122.41;10414582;28;20076;-70
2023/07/22 16:16:03;;;;;;;13.70;3.53;;;;;;;19.80;100.00;101114.63;10414066;28;20030;-70
2023/07/22 16:21:04;;;;;;;7.78;2.70;;;;;;;19.88;100.00;101110.63;10413619;28;20038;-71
2023/07/22 16:26:05;;;;;;;3.53;1.88;;;;;;;19.86;100.00;101110.88;10414317;28;20080;-69
2023/07/22 16:31:05;;;;;;;11.65;3.03;;;;;;;19.90;100.00;101108.44;10413758;28;20048;-71
2023/07/22 16:36:05;;;;;;;1.95;1.80;;;;;;;19.92;97.71;101109.03;10412965;28;20083;-71
2023/07/22 16:41:06;;;;;;;4.53;2.58;;;;;;;19.79;94.86;101114.91;10413131;28;20492;-70
2023/07/22 16:46:06;;;;;;;5.60;2.90;;;;;;;19.65;96.89;101101.50;10429794;28;20121;-70
2023/07/22 16:51:07;;;;;;;4.45;2.60;;;;;;;19.68;96.89;101103.75;10412921;28;20080;-72
2023/07/22 16:56:07;;;;;;;3.90;2.55;;;;;;;19.49;97.66;101110.56;10412408;28;20095;-71
2023/07/22 17:01:08;;;;;;;3.00;2.55;;;;;;;19.01;98.76;101106.50;10412688;28;20041;-71
2023/07/22 17:06:11;;;;;;;16.60;2.92;;;;;;;18.36;100.00;101110.53;10411421;28;20061;-70
2023/07/22 17:11:11;;;;;;;13.25;4.22;;;;;;;18.25;100.00;101108.63;10412823;28;20041;-71
2023/07/22 17:16:12;;;;;;;5.15;3.38;;;;;;;18.28;100.00;101105.41;10411278;28;20025;-70
2023/07/22 17:21:12;;;;;;;3.85;2.90;;;;;;;17.92;100.00;101110.16;10412627;28;20473;-71
2023/07/22 17:26:13;;;;;;;7.85;3.55;;;;;;;17.66;100.00;101106.00;10410814;28;20108;-71
2023/07/22 17:31:13;;;;;;;3.75;2.90;;;;;;;17.32;100.00;101092.06;10411113;28;20040;-70
2023/07/22 17:36:13;;;;;;;4.03;3.40;;;;;;;17.11;100.00;101106.34;10412057;28;20075;-70
2023/07/22 17:41:14;;;;;;;11.98;4.47;;;;;;;16.99;100.00;101097.28;10427073;28;20095;-71
2023/07/22 17:46:14;;;;;;;11.13;4.38;;;;;;;16.87;100.00;101098.09;10411565;28;20457;-70
2023/07/22 17:51:15;;;;;;;6.10;4.63;;;;;;;16.74;100.00;101093.63;10412266;28;20433;-71
2023/07/22 17:56:15;;;;;;;5.28;4.10;;;;;;;16.48;100.00;101094.00;10427129;28;20060;-69
2023/07/22 18:01:15;;;;;;;10.25;5.80;;;;;;;16.27;100.00;101089.88;10411765;28;20061;-70
2023/07/22 18:06:16;;;;;;;6.25;4.78;;;;;;;16.23;100.00;101091.41;10412285;28;20037;-69
2023/07/22 18:11:16;;;;;;;12.57;3.83;;;;;;;16.15;100.00;101094.47;10400890;28;20132;-69
2023/07/22 18:16:17;;;;;;;8.45;4.35;;;;;;;15.94;100.00;101091.13;10418977;28;20276;-67
2023/07/22 18:21:17;;;;;;;9.43;5.43;;;;;;;15.75;100.00;101084.84;10433771;28;20523;-67
2023/07/22 18:26:18;;;;;;;13.40;4.38;;;;;;;15.56;100.00;101070.31;10419573;28;20069;-68
2023/07/22 18:31:19;;;;;;;9.70;3.85;;;;;;;15.50;100.00;101064.94;10433352;28;20151;-69
2023/07/22 18:36:20;;;;;;;9.80;4.10;;;;;;;15.40;100.00;101065.44;10418968;28;20056;-67
2023/07/22 18:41:21;;;;;;;14.45;3.97;;;;;;;15.32;100.00;101052.13;10418322;28;20064;-68
2023/07/22 18:46:22;;;;;;;13.60;4.43;;;;;;;15.39;100.00;101046.59;10400367;28;20485;-70
2023/07/22 18:51:22;;;;;;;13.95;4.75;;;;;;;15.45;100.00;101051.16;10417401;28;20120;-68
2023/07/22 18:56:23;;;;;;;5.57;4.30;;;;;;;15.53;100.00;101048.94;10415840;28;20470;-69
2023/07/22 19:01:23;;;;;;;8.05;4.85;;;;;;;15.53;100.00;101042.66;10415989;28;20029;-68
2023/07/22 19:06:23;;;;;;;11.48;4.45;;;;;;;15.53;100.00;101045.38;10399403;28;20026;-69
2023/07/22 19:11:24;;;;;;;10.60;4.53;;;;;;;15.53;100.00;101048.09;10415388;28;20049;-69
2023/07/22 19:16:25;;;;;;;5.55;3.40;;;;;;;15.49;100.00;101035.97;10416206;28;20037;-68
2023/07/22 19:21:25;;;;;;;8.32;4.20;;;;;;;15.41;100.00;101039.00;10398287;28;20042;-69
2023/07/22 19:26:26;;;;;;;9.38;5.80;;;;;;;15.39;100.00;101028.31;10415443;28;20033;-69
2023/07/22 19:31:26;;;;;;;9.50;5.25;;;;;;;15.39;100.00;101024.75;10416958;28;20037;-69
2023/07/22 19:36:27;;;;;;;6.40;4.57;;;;;;;15.26;100.00;101026.56;10431058;28;20116;-69
2023/07/22 19:41:27;;;;;;;10.93;5.57;;;;;;;15.22;100.00;101027.22;10415962;28;20051;-69
2023/07/22 19:46:28;;;;;;;0.98;0.98;;;;;;;15.16;100.00;101017.25;10414331;28;20045;-67
2023/07/22 19:51:28;;;;;;;0.40;0.40;;;;;;;15.08;100.00;101019.16;10430596;28;20037;-68
2023/07/22 19:56:28;;;;;;;0.32;0.32;;;;;;;15.01;100.00;101031.22;10430569;28;20045;-69
2023/07/22 20:01:29;;;;;;;0.77;0.77;;;;;;;14.96;100.00;101022.84;10415701;28;20113;-68
2023/07/22 20:06:29;;;;;;;1.27;1.08;;;;;;;15.00;100.00;101024.09;10414594;28;20049;-67
2023/07/22 20:11:30;;;;;;;1.15;1.15;;;;;;;14.93;100.00;101018.69;10413884;28;20033;-67
2023/07/22 20:16:31;;;;;;;0.32;0.32;;;;;;;14.94;100.00;101020.38;10412435;28;20030;-67
2023/07/22 20:21:31;;;;;;;2.03;1.85;;;;;;;14.96;100.00;101020.97;10414824;28;20037;-67
2023/07/22 20:26:32;;;;;;;0.30;0.30;;;;;;;14.87;100.00;101016.88;10413232;28;20473;-68
2023/07/22 20:31:32;;;;;;;0.30;0.30;;;;;;;14.94;100.00;100995.81;10412927;28;20078;-66
2023/07/22 20:36:33;;;;;;;0.40;0.40;;;;;;;14.97;100.00;100997.28;10430506;28;20029;-67
2023/07/22 20:41:33;;;;;;;0.93;0.93;;;;;;;14.95;100.00;100992.03;10413397;28;20038;-68
2023/07/22 20:46:34;;;;;;;0.50;0.50;;;;;;;14.97;100.00;100984.47;10411639;28;20029;-67
2023/07/22 20:51:34;;;;;;;0.55;0.55;;;;;;;14.90;100.00;100986.44;10411974;28;20033;-67
2023/07/22 20:56:34;;;;;;;0.40;0.40;;;;;;;14.92;100.00;100980.75;10413729;28;20060;-67
2023/07/22 21:01:35;;;;;;;0.95;0.95;;;;;;;14.96;100.00;100988.22;10413683;28;20057;-67
2023/07/22 21:06:36;;;;;;;1.25;1.25;;;;;;;14.94;100.00;100970.44;10411044;28;20049;-67
2023/07/22 21:11:37;;;;;;;0.30;0.30;;;;;;;14.92;100.00;100970.66;10412566;28;20036;-67
2023/07/22 21:16:37;;;;;;;0.50;0.50;;;;;;;14.85;100.00;100967.16;10413952;28;20041;-68
2023/07/22 21:21:38;;;;;;;0.30;0.30;;;;;;;14.90;100.00;100967.34;10429092;28;20033;-67
2023/07/22 21:26:38;;;;;;;8.20;1.42;;;;;;;14.89;100.00;100966.47;10412543;28;20100;-66
2023/07/22 21:31:39;;;;;;;2.95;2.55;;;;;;;14.81;100.00;100955.06;10411228;28;20063;-67
2023/07/22 21:36:39;;;;;;;0.70;0.70;;;;;;;14.81;100.00;100941.44;10427553;28;20084;-66
2023/07/22 21:41:39;;;;;;;0.25;0.25;;;;;;;14.75;100.00;100931.41;10413529;28;20175;-66
2023/07/22 21:46:40;;;;;;;0.35;0.35;;;;;;;14.69;100.00;100927.69;10419983;28;20452;-67
2023/07/22 21:51:43;;;;;;;1.10;1.10;;;;;;;14.71;100.00;100924.72;10419839;28;20037;-66
2023/07/22 21:56:43;;;;;;;0.30;0.30;;;;;;;14.70;100.00;100917.63;10418508;28;20049;-66
2023/07/22 22:01:43;;;;;;;0.55;0.55;;;;;;;14.74;100.00;100914.22;10420694;28;20067;-67
2023/07/22 22:06:45;;;;;;;0.52;0.52;;;;;;;14.80;100.00;100926.09;10419482;28;20072;-66
2023/07/22 22:11:46;;;;;;;2.78;2.50;;;;;;;14.69;100.00;100915.97;10419288;28;20124;-66
2023/07/22 22:16:46;;;;;;;1.00;0.95;;;;;;;14.69;100.00;100905.06;10418202;28;20121;-66
2023/07/22 22:21:46;;;;;;;1.05;1.05;;;;;;;14.72;100.00;100899.16;10401035;28;20100;-67
2023/07/22 22:26:47;;;;;;;0.65;0.65;;;;;;;14.75;100.00;100893.25;10419251;28;20112;-67
2023/07/22 22:31:47;;;;;;;1.30;1.20;;;;;;;14.80;100.00;100891.50;10418746;28;20385;-68
2023/07/22 22:36:48;;;;;;;0.60;0.60;;;;;;;14.81;100.00;100887.72;10417621;28;20116;-67
2023/07/22 22:41:49;;;;;;;4.28;1.55;;;;;;;14.86;100.00;100863.31;10418667;28;20042;-68